Time;durP1;ratioP1;P1;durP2;ratioP2;P2;SDS_P1;SDS_P2;PMS_P1;PMS_P2;Temp;Humidity;BMP_temperature;BMP_pressure;BME280_temperature;BME280_humidity;BME280_pressure;Samples;Min_cycle;Max_cycle;Signal;HPM_P1;HPM_P2
2023/10/21 00:02:11;;;;;;;84.50;38.50;;;;;;;;;;4995806;28;20057;-87
2023/10/21 00:04:37;;;;;;;92.13;38.50;;;;;;;;;;4997223;28;20037;-86
2023/10/21 00:07:03;;;;;;;94.72;39.65;;;;;;;;;;5008808;28;20092;-88
2023/10/21 00:09:29;;;;;;;89.18;35.92;;;;;;;;;;5013581;28;20045;-89
2023/10/21 00:11:55;;;;;;;99.50;38.25;;;;;;;;;;5026601;28;20045;-88
2023/10/21 00:14:21;;;;;;;97.60;40.03;;;;;;;;;;5023907;28;20452;-86
2023/10/21 00:16:49;;;;;;;94.60;39.90;;;;;;;;;;5010356;28;20042;-88
2023/10/21 00:19:16;;;;;;;95.90;42.47;;;;;;;;;;5025397;28;20505;-87
2023/10/21 00:21:42;;;;;;;95.57;42.60;;;;;;;;;;5015268;28;20408;-89
2023/10/21 00:24:08;;;;;;;99.70;42.70;;;;;;;;;;5028890;28;20033;-88
2023/10/21 00:26:47;;;;;;;99.80;42.90;;;;;;;;;;5000340;28;20049;-87
2023/10/21 00:29:16;;;;;;;102.47;42.13;;;;;;;;;;5026540;28;20083;-88
2023/10/21 00:31:43;;;;;;;93.22;39.65;;;;;;;;;;5027089;28;20069;-88
2023/10/21 00:34:09;;;;;;;104.07;41.88;;;;;;;;;;5028624;28;20062;-88
2023/10/21 00:36:35;;;;;;;108.30;41.47;;;;;;;;;;5029868;28;20061;-88
2023/10/21 00:39:01;;;;;;;107.00;43.47;;;;;;;;;;5028635;28;20124;-86
2023/10/21 00:41:28;;;;;;;108.38;42.35;;;;;;;;;;5010722;28;20064;-88
2023/10/21 00:43:54;;;;;;;101.50;41.95;;;;;;;;;;5029975;28;20056;-88
2023/10/21 00:46:22;;;;;;;110.32;44.25;;;;;;;;;;5023609;28;20040;-88
2023/10/21 00:48:48;;;;;;;105.45;44.38;;;;;;;;;;5026637;28;20037;-86
2023/10/21 00:51:15;;;;;;;107.45;46.42;;;;;;;;;;5004001;28;20111;-88
2023/10/21 00:53:41;;;;;;;106.00;44.15;;;;;;;;;;5026990;28;20049;-85
2023/10/21 00:56:07;;;;;;;105.63;45.22;;;;;;;;;;5027915;28;20152;-87
2023/10/21 00:58:34;;;;;;;112.45;45.72;;;;;;;;;;5013867;28;20057;-88
2023/10/21 01:01:06;;;;;;;110.63;45.88;;;;;;;;;;5027213;28;20080;-85
2023/10/21 01:03:32;;;;;;;114.35;47.10;;;;;;;;;;5013664;28;20614;-88
2023/10/21 01:05:59;;;;;;;114.18;46.38;;;;;;;;;;5007800;28;20398;-88
2023/10/21 01:08:25;;;;;;;125.05;47.83;;;;;;;;;;5029582;28;20048;-89
2023/10/21 01:10:51;;;;;;;116.07;46.22;;;;;;;;;;5026133;28;20047;-86
2023/10/21 01:13:17;;;;;;;122.82;47.67;;;;;;;;;;5012824;28;20228;-88
2023/10/21 01:15:43;;;;;;;110.97;46.47;;;;;;;;;;5025588;28;20041;-88
2023/10/21 01:18:10;;;;;;;114.00;47.67;;;;;;;;;;5028510;28;20492;-88
2023/10/21 01:20:41;;;;;;;113.20;45.67;;;;;;;;;;5027365;28;20037;-88
2023/10/21 01:23:07;;;;;;;107.22;44.50;;;;;;;;;;5005190;28;21155;-88
2023/10/21 01:25:33;;;;;;;110.25;45.08;;;;;;;;;;5008112;28;20082;-88
2023/10/21 01:27:59;;;;;;;130.52;47.28;;;;;;;;;;5011839;28;20048;-86
2023/10/21 01:30:26;;;;;;;131.98;48.45;;;;;;;;;;5043325;28;20045;-88
2023/10/21 01:32:53;;;;;;;117.22;46.58;;;;;;;;;;5023819;28;20120;-87
2023/10/21 01:35:19;;;;;;;128.48;47.95;;;;;;;;;;5011514;28;20053;-88
2023/10/21 01:37:46;;;;;;;134.13;48.78;;;;;;;;;;4994914;28;20075;-88
2023/10/21 01:40:12;;;;;;;126.78;48.35;;;;;;;;;;5025678;28;20037;-87
2023/10/21 01:42:39;;;;;;;135.25;49.47;;;;;;;;;;5007935;28;20036;-89
2023/10/21 01:45:05;;;;;;;153.63;49.20;;;;;;;;;;5009276;28;20041;-86
2023/10/21 01:47:31;;;;;;;147.73;49.63;;;;;;;;;;5010280;28;20048;-88
2023/10/21 01:49:58;;;;;;;147.10;48.25;;;;;;;;;;5011289;28;20039;-86
2023/10/21 01:52:25;;;;;;;169.02;49.50;;;;;;;;;;5022178;28;20640;-86
2023/10/21 01:54:53;;;;;;;166.43;49.50;;;;;;;;;;5010282;28;20049;-89
2023/10/21 01:57:19;;;;;;;175.82;51.17;;;;;;;;;;5027838;28;20041;-89
2023/10/21 01:59:45;;;;;;;163.57;49.28;;;;;;;;;;5013420;28;20451;-89
2023/10/21 02:02:12;;;;;;;178.68;54.25;;;;;;;;;;5011045;28;20068;-88
2023/10/21 02:04:38;;;;;;;210.27;51.88;;;;;;;;;;5028059;28;20041;-87
2023/10/21 02:07:04;;;;;;;227.45;54.85;;;;;;;;;;5023557;28;20068;-88
2023/10/21 02:09:30;;;;;;;272.00;56.85;;;;;;;;;;5025906;28;20064;-87
2023/10/21 02:11:56;;;;;;;251.43;53.80;;;;;;;;;;5024494;28;20045;-88
2023/10/21 02:14:23;;;;;;;311.92;58.75;;;;;;;;;;5026068;28;20076;-86
2023/10/21 02:16:53;;;;;;;308.05;59.42;;;;;;;;;;5024825;28;20060;-88
2023/10/21 02:19:19;;;;;;;359.75;59.65;;;;;;;;;;4994995;28;20041;-88
2023/10/21 02:21:45;;;;;;;396.02;62.67;;;;;;;;;;5011245;28;20084;-88
2023/10/21 02:24:11;;;;;;;392.60;61.47;;;;;;;;;;5023098;28;20393;-89
2023/10/21 02:26:37;;;;;;;429.45;63.03;;;;;;;;;;5023407;28;20049;-87
2023/10/21 02:29:03;;;;;;;418.75;62.70;;;;;;;;;;5007625;28;20540;-87
2023/10/21 02:31:29;;;;;;;413.05;64.13;;;;;;;;;;5026168;28;20136;-88
2023/10/21 02:33:55;;;;;;;439.80;63.13;;;;;;;;;;5010859;28;20061;-88
2023/10/21 02:36:22;;;;;;;396.63;60.67;;;;;;;;;;5027542;28;20497;-89
2023/10/21 02:38:51;;;;;;;469.95;67.68;;;;;;;;;;5021955;28;20064;-88
2023/10/21 02:41:17;;;;;;;466.63;60.90;;;;;;;;;;5026763;28;20867;-87
2023/10/21 02:43:43;;;;;;;455.20;63.40;;;;;;;;;;5011029;28;20034;-88
2023/10/21 02:46:13;;;;;;;544.58;67.40;;;;;;;;;;5009506;28;20042;-86
2023/10/21 02:48:40;;;;;;;523.65;65.78;;;;;;;;;;5023890;28;21041;-86
2023/10/21 02:51:13;;;;;;;479.48;63.97;;;;;;;;;;5024522;28;20111;-88
2023/10/21 02:53:39;;;;;;;479.80;63.78;;;;;;;;;;5008296;28;20099;-88
2023/10/21 02:56:06;;;;;;;364.77;61.42;;;;;;;;;;5025074;28;20049;-89
2023/10/21 02:58:34;;;;;;;395.75;61.30;;;;;;;;;;5016584;28;20021;-88
2023/10/21 03:01:17;;;;;;;404.88;61.40;;;;;;;;;;5001136;28;20042;-88
2023/10/21 03:03:44;;;;;;;500.02;64.18;;;;;;;;;;5010463;28;20049;-89
2023/10/21 03:06:10;;;;;;;394.50;62.78;;;;;;;;;;5000008;28;20060;-88
2023/10/21 03:08:37;;;;;;;493.42;64.93;;;;;;;;;;5031429;28;20507;-86
2023/10/21 03:11:03;;;;;;;466.77;64.63;;;;;;;;;;5031068;28;20037;-88
2023/10/21 03:13:33;;;;;;;429.83;62.03;;;;;;;;;;5024991;28;20045;-87
2023/10/21 03:16:00;;;;;;;469.50;64.78;;;;;;;;;;5013864;28;20077;-88
2023/10/21 03:18:26;;;;;;;437.48;62.40;;;;;;;;;;5016610;28;20037;-88
2023/10/21 03:20:52;;;;;;;385.17;60.65;;;;;;;;;;5013577;28;20045;-87
2023/10/21 03:23:19;;;;;;;481.55;65.40;;;;;;;;;;5014926;28;20393;-87
2023/10/21 03:26:04;;;;;;;401.38;59.28;;;;;;;;;;5015580;28;20042;-82
2023/10/21 03:28:31;;;;;;;458.15;65.43;;;;;;;;;;5010407;28;20052;-84
2023/10/21 03:30:57;;;;;;;440.88;61.92;;;;;;;;;;5010325;28;20052;-82
2023/10/21 03:33:24;;;;;;;374.17;64.40;;;;;;;;;;5011536;28;20053;-85
2023/10/21 03:35:53;;;;;;;406.02;62.53;;;;;;;;;;5017543;28;20045;-84
2023/10/21 03:38:21;;;;;;;409.98;63.28;;;;;;;;;;5027436;28;20544;-83
2023/10/21 03:41:05;;;;;;;438.77;63.45;;;;;;;;;;5032553;28;20040;-84
2023/10/21 03:43:32;;;;;;;347.25;59.30;;;;;;;;;;5033777;28;20393;-81
2023/10/21 03:46:01;;;;;;;371.02;59.22;;;;;;;;;;5031260;28;20048;-83
2023/10/21 03:48:27;;;;;;;360.60;59.03;;;;;;;;;;5033448;28;20095;-82
2023/10/21 03:50:56;;;;;;;316.60;56.78;;;;;;;;;;5016608;28;20536;-82
2023/10/21 03:53:23;;;;;;;323.15;55.47;;;;;;;;;;5033853;28;20094;-82
2023/10/21 03:55:49;;;;;;;330.85;59.38;;;;;;;;;;5029522;28;20772;-82
2023/10/21 03:58:16;;;;;;;306.75;58.10;;;;;;;;;;5001082;28;20492;-84
2023/10/21 04:00:42;;;;;;;332.67;59.20;;;;;;;;;;5012081;28;20040;-82
2023/10/21 04:03:08;;;;;;;293.40;55.38;;;;;;;;;;5007971;28;20441;-82
2023/10/21 04:05:34;;;;;;;307.75;56.88;;;;;;;;;;5030739;28;20056;-87
2023/10/21 04:08:04;;;;;;;330.67;54.95;;;;;;;;;;5030946;28;20107;-83
2023/10/21 04:10:31;;;;;;;271.02;53.42;;;;;;;;;;5011731;28;20101;-84
2023/10/21 04:12:57;;;;;;;230.32;51.63;;;;;;;;;;5016768;28;20123;-82
2023/10/21 04:15:23;;;;;;;216.80;51.30;;;;;;;;;;4998492;28;20037;-85
2023/10/21 04:17:49;;;;;;;229.55;48.70;;;;;;;;;;4992458;28;20044;-82
2023/10/21 04:20:18;;;;;;;251.55;53.42;;;;;;;;;;5013223;28;20072;-84
2023/10/21 04:22:44;;;;;;;252.52;52.40;;;;;;;;;;5032777;28;20044;-82
2023/10/21 04:25:11;;;;;;;247.48;56.00;;;;;;;;;;5016416;28;20493;-83
2023/10/21 04:27:37;;;;;;;239.48;52.40;;;;;;;;;;5027491;28;20037;-83
2023/10/21 04:30:04;;;;;;;256.50;53.60;;;;;;;;;;5029196;28;20084;-84
2023/10/21 04:32:30;;;;;;;255.70;53.67;;;;;;;;;;5015630;28;20377;-84
2023/10/21 04:34:56;;;;;;;267.55;54.20;;;;;;;;;;4995655;28;20072;-83
2023/10/21 04:37:23;;;;;;;233.40;51.33;;;;;;;;;;5018875;28;20040;-88
2023/10/21 04:39:49;;;;;;;238.90;49.85;;;;;;;;;;5033893;28;20041;-89
2023/10/21 04:42:15;;;;;;;221.93;48.75;;;;;;;;;;5034943;28;20029;-86
2023/10/21 04:44:41;;;;;;;225.07;49.35;;;;;;;;;;5017920;28;20053;-89
2023/10/21 04:47:07;;;;;;;228.52;49.13;;;;;;;;;;5014045;28;20050;-83
2023/10/21 04:49:33;;;;;;;184.18;44.95;;;;;;;;;;5015338;28;20072;-83
2023/10/21 04:51:59;;;;;;;188.43;46.00;;;;;;;;;;5015065;28;20083;-83
2023/10/21 04:54:26;;;;;;;146.05;43.08;;;;;;;;;;5028640;28;20178;-84
2023/10/21 04:56:52;;;;;;;150.82;40.53;;;;;;;;;;5028638;28;20456;-84
2023/10/21 04:59:18;;;;;;;159.02;42.25;;;;;;;;;;5025576;28;20036;-83
2023/10/21 05:01:44;;;;;;;161.77;42.53;;;;;;;;;;5028587;28;20064;-83
2023/10/21 05:04:10;;;;;;;159.20;43.22;;;;;;;;;;5029190;28;20033;-83
2023/10/21 05:06:36;;;;;;;138.45;40.17;;;;;;;;;;5012018;28;20045;-82
2023/10/21 05:09:03;;;;;;;143.88;41.40;;;;;;;;;;5007930;28;20120;-83
2023/10/21 05:11:29;;;;;;;148.82;42.17;;;;;;;;;;5011295;28;20053;-84
2023/10/21 05:13:55;;;;;;;144.77;40.92;;;;;;;;;;5023051;28;22076;-84
2023/10/21 05:16:21;;;;;;;152.00;41.83;;;;;;;;;;5009339;28;20134;-82
2023/10/21 05:18:47;;;;;;;136.23;40.75;;;;;;;;;;5027362;28;20068;-83
2023/10/21 05:21:14;;;;;;;161.35;44.20;;;;;;;;;;5007837;28;20505;-84
2023/10/21 05:23:40;;;;;;;163.55;43.03;;;;;;;;;;5021445;28;20427;-82
2023/10/21 05:26:06;;;;;;;152.13;43.40;;;;;;;;;;5026283;28;20543;-83
2023/10/21 05:28:32;;;;;;;137.32;42.22;;;;;;;;;;5026597;28;20044;-83
2023/10/21 05:30:58;;;;;;;168.90;44.83;;;;;;;;;;5014400;28;20054;-84
2023/10/21 05:33:25;;;;;;;147.40;42.63;;;;;;;;;;5006542;28;20049;-84
2023/10/21 05:35:52;;;;;;;177.57;43.75;;;;;;;;;;5022805;28;20045;-84
2023/10/21 05:38:18;;;;;;;162.32;42.85;;;;;;;;;;5029673;28;20052;-83
2023/10/21 05:40:45;;;;;;;135.50;41.42;;;;;;;;;;5015993;28;20043;-84
2023/10/21 05:43:11;;;;;;;136.90;41.03;;;;;;;;;;5032304;28;20056;-83
2023/10/21 05:45:37;;;;;;;139.13;42.45;;;;;;;;;;5031382;28;20060;-86
2023/10/21 05:48:04;;;;;;;110.38;39.90;;;;;;;;;;5020201;28;20063;-87
2023/10/21 05:50:31;;;;;;;132.57;41.70;;;;;;;;;;5017031;28;20056;-87
2023/10/21 05:52:57;;;;;;;132.23;40.85;;;;;;;;;;5014923;28;20472;-89
2023/10/21 05:55:23;;;;;;;131.13;41.35;;;;;;;;;;5028787;28;20037;-89
2023/10/21 05:57:49;;;;;;;126.63;38.97;;;;;;;;;;5011470;28;20037;-83
2023/10/21 06:00:16;;;;;;;111.38;40.28;;;;;;;;;;5011370;28;20047;-83
2023/10/21 06:02:42;;;;;;;84.80;36.08;;;;;;;;;;5011435;28;20036;-83
2023/10/21 06:05:08;;;;;;;91.00;35.83;;;;;;;;;;5009899;28;20045;-85
2023/10/21 06:07:34;;;;;;;84.10;35.78;;;;;;;;;;5026430;28;20564;-85
2023/10/21 06:10:00;;;;;;;81.50;35.63;;;;;;;;;;5011563;28;20044;-85
2023/10/21 06:12:26;;;;;;;82.22;36.17;;;;;;;;;;4995548;28;20041;-85
2023/10/21 06:14:53;;;;;;;75.68;33.63;;;;;;;;;;5005964;28;20445;-85
2023/10/21 06:17:20;;;;;;;81.40;34.13;;;;;;;;;;5009340;28;20045;-85
2023/10/21 06:19:46;;;;;;;79.85;34.58;;;;;;;;;;5025952;28;20128;-85
2023/10/21 06:22:13;;;;;;;83.75;34.50;;;;;;;;;;5025120;28;20033;-85
2023/10/21 06:24:39;;;;;;;67.38;32.42;;;;;;;;;;5014233;28;20120;-85
2023/10/21 06:27:07;;;;;;;78.53;33.58;;;;;;;;;;5027628;28;20076;-86
2023/10/21 06:29:34;;;;;;;77.65;33.85;;;;;;;;;;5003850;28;20046;-85
2023/10/21 06:32:00;;;;;;;70.53;33.33;;;;;;;;;;5009862;28;20132;-85
2023/10/21 06:34:27;;;;;;;69.43;33.83;;;;;;;;;;5016473;28;20140;-85
2023/10/21 06:36:53;;;;;;;76.72;33.63;;;;;;;;;;4996141;28;20053;-85
2023/10/21 06:39:20;;;;;;;68.53;33.15;;;;;;;;;;5012736;28;20052;-85
2023/10/21 06:41:46;;;;;;;68.80;33.05;;;;;;;;;;5031013;28;20064;-86
2023/10/21 06:44:15;;;;;;;61.78;31.67;;;;;;;;;;5011736;28;20118;-85
2023/10/21 06:46:42;;;;;;;70.50;33.20;;;;;;;;;;5026411;28;20052;-86
2023/10/21 06:49:09;;;;;;;67.00;32.65;;;;;;;;;;5028395;28;20040;-86
2023/10/21 06:51:36;;;;;;;73.95;33.42;;;;;;;;;;5022072;28;20107;-84
2023/10/21 06:54:02;;;;;;;74.60;32.78;;;;;;;;;;5023626;28;20056;-85
2023/10/21 06:56:28;;;;;;;66.15;32.90;;;;;;;;;;5010269;28;20136;-86
2023/10/21 06:58:54;;;;;;;66.28;31.73;;;;;;;;;;5012487;28;20773;-86
2023/10/21 07:01:20;;;;;;;68.78;32.08;;;;;;;;;;5023896;28;20179;-85
2023/10/21 07:03:47;;;;;;;76.15;32.55;;;;;;;;;;5011738;28;20480;-85
2023/10/21 07:06:13;;;;;;;66.63;32.08;;;;;;;;;;5016116;28;20480;-85
2023/10/21 07:08:40;;;;;;;62.85;31.20;;;;;;;;;;5014973;28;20397;-85
2023/10/21 07:11:06;;;;;;;64.57;31.63;;;;;;;;;;5008076;28;20902;-85
2023/10/21 07:13:32;;;;;;;64.78;31.40;;;;;;;;;;5014781;28;20040;-86
2023/10/21 07:16:05;;;;;;;60.05;30.02;;;;;;;;;;4999315;28;20033;-85
2023/10/21 07:18:32;;;;;;;65.47;31.30;;;;;;;;;;5011578;28;20049;-86
2023/10/21 07:20:59;;;;;;;62.67;30.83;;;;;;;;;;4995730;28;20369;-86
2023/10/21 07:23:25;;;;;;;68.15;31.65;;;;;;;;;;5014011;28;20882;-85
2023/10/21 07:25:51;;;;;;;57.67;30.10;;;;;;;;;;5016090;28;20072;-85
2023/10/21 07:28:18;;;;;;;58.97;31.52;;;;;;;;;;5018778;28;20043;-86
2023/10/21 07:30:44;;;;;;;60.58;30.60;;;;;;;;;;5011340;28;20396;-87
2023/10/21 07:33:10;;;;;;;53.97;29.38;;;;;;;;;;5000994;28;20404;-85
2023/10/21 07:35:38;;;;;;;61.20;29.45;;;;;;;;;;5017201;28;20477;-85
2023/10/21 07:38:04;;;;;;;58.42;30.17;;;;;;;;;;5020988;28;20492;-85
2023/10/21 07:40:30;;;;;;;55.47;28.95;;;;;;;;;;4992524;28;20370;-85
2023/10/21 07:42:56;;;;;;;59.38;29.30;;;;;;;;;;5014162;28;20070;-86
2023/10/21 07:45:22;;;;;;;62.83;29.80;;;;;;;;;;5028186;28;20128;-86
2023/10/21 07:47:48;;;;;;;58.83;29.33;;;;;;;;;;5003095;28;20037;-86
2023/10/21 07:50:14;;;;;;;55.10;29.35;;;;;;;;;;5023440;28;20040;-85
2023/10/21 07:52:40;;;;;;;56.88;29.52;;;;;;;;;;5015378;28;20048;-86
2023/10/21 07:55:07;;;;;;;63.20;30.02;;;;;;;;;;5035282;28;20107;-85
2023/10/21 07:57:33;;;;;;;56.58;29.83;;;;;;;;;;5033557;28;20041;-86
2023/10/21 08:00:00;;;;;;;49.88;27.63;;;;;;;;;;5012933;28;20045;-86
2023/10/21 08:02:26;;;;;;;58.88;28.35;;;;;;;;;;5013824;28;20041;-85
2023/10/21 08:04:52;;;;;;;51.13;27.52;;;;;;;;;;5031722;28;20146;-85
2023/10/21 08:07:18;;;;;;;48.72;28.13;;;;;;;;;;5005468;28;20925;-89
2023/10/21 08:09:44;;;;;;;57.47;28.25;;;;;;;;;;5016544;28;20100;-89
2023/10/21 08:12:11;;;;;;;50.65;28.45;;;;;;;;;;5023536;28;20094;-91
2023/10/21 08:14:40;;;;;;;56.53;28.70;;;;;;;;;;5017379;28;20098;-88
2023/10/21 08:17:07;;;;;;;51.72;27.77;;;;;;;;;;5014317;28;20049;-87
2023/10/21 08:19:34;;;;;;;49.20;28.20;;;;;;;;;;5028018;28;20045;-87
2023/10/21 08:22:01;;;;;;;51.53;27.80;;;;;;;;;;5031093;28;20037;-87
2023/10/21 08:24:27;;;;;;;53.65;29.58;;;;;;;;;;5014169;28;20075;-88
2023/10/21 08:26:53;;;;;;;54.63;28.25;;;;;;;;;;5014270;28;20254;-87
2023/10/21 08:29:20;;;;;;;53.38;27.80;;;;;;;;;;5028631;28;20043;-87
2023/10/21 08:31:47;;;;;;;47.42;27.38;;;;;;;;;;5033360;28;20040;-87
2023/10/21 08:34:13;;;;;;;50.67;27.58;;;;;;;;;;5029627;28;20552;-88
2023/10/21 08:36:39;;;;;;;50.65;27.77;;;;;;;;;;5014692;28;20068;-88
2023/10/21 08:39:07;;;;;;;50.25;27.83;;;;;;;;;;5015251;28;20458;-87
2023/10/21 08:41:43;;;;;;;49.88;28.73;;;;;;;;;;5029177;28;20087;-87
2023/10/21 08:44:12;;;;;;;51.00;27.30;;;;;;;;;;5013623;28;20045;-87
2023/10/21 08:46:38;;;;;;;44.38;25.65;;;;;;;;;;5010141;28;20555;-87
2023/10/21 08:49:04;;;;;;;47.90;26.50;;;;;;;;;;5026425;28;20048;-88
2023/10/21 08:51:31;;;;;;;43.60;25.35;;;;;;;;;;4996107;28;20076;-88
2023/10/21 08:54:04;;;;;;;51.30;26.25;;;;;;;;;;5032043;28;20045;-88
2023/10/21 08:56:30;;;;;;;49.80;27.08;;;;;;;;;;5011461;28;20049;-88
2023/10/21 08:58:57;;;;;;;47.60;26.02;;;;;;;;;;5015642;28;20044;-88
2023/10/21 09:01:24;;;;;;;56.10;28.23;;;;;;;;;;5012724;28;20048;-88
2023/10/21 09:03:50;;;;;;;41.25;25.00;;;;;;;;;;5014547;28;22015;-89
2023/10/21 09:06:19;;;;;;;44.90;24.92;;;;;;;;;;5008495;28;20044;-89
2023/10/21 09:08:47;;;;;;;35.13;23.75;;;;;;;;;;5000361;28;20059;-88
2023/10/21 09:11:18;;;;;;;46.75;27.00;;;;;;;;;;5013836;28;20136;-86
2023/10/21 09:13:44;;;;;;;41.70;24.70;;;;;;;;;;5029944;28;20147;-88
2023/10/21 09:16:21;;;;;;;45.83;25.77;;;;;;;;;;5014354;28;20064;-88
2023/10/21 09:18:57;;;;;;;46.92;24.25;;;;;;;;;;5026700;28;20049;-84
2023/10/21 09:21:38;;;;;;;43.85;24.30;;;;;;;;;;5015861;28;20037;-85
2023/10/21 09:24:19;;;;;;;43.60;24.38;;;;;;;;;;5015379;28;20029;-82
2023/10/21 09:26:47;;;;;;;41.38;24.15;;;;;;;;;;5023692;28;20055;-89
2023/10/21 09:29:14;;;;;;;36.60;22.13;;;;;;;;;;5007408;28;20037;-88
2023/10/21 09:31:51;;;;;;;37.10;22.27;;;;;;;;;;5015510;28;20045;-88
2023/10/21 09:34:33;;;;;;;37.38;21.77;;;;;;;;;;5024931;28;20458;-87
2023/10/21 09:37:00;;;;;;;33.25;21.55;;;;;;;;;;5039875;28;20053;-87
2023/10/21 09:39:27;;;;;;;35.88;21.52;;;;;;;;;;5026378;28;20048;-86
2023/10/21 09:41:53;;;;;;;35.83;20.48;;;;;;;;;;5029119;28;20040;-88
2023/10/21 09:44:20;;;;;;;35.25;21.15;;;;;;;;;;5029734;28;20041;-88
2023/10/21 09:46:46;;;;;;;35.92;21.77;;;;;;;;;;5027588;28;20045;-89
2023/10/21 09:49:13;;;;;;;34.78;21.80;;;;;;;;;;5020888;28;20041;-88
2023/10/21 09:52:00;;;;;;;29.33;20.52;;;;;;;;;;4996575;28;20515;-89
2023/10/21 09:54:45;;;;;;;30.33;19.00;;;;;;;;;;5025794;28;20045;-88
2023/10/21 09:57:11;;;;;;;34.10;20.23;;;;;;;;;;5013489;28;20041;-89
2023/10/21 09:59:41;;;;;;;35.83;21.05;;;;;;;;;;5025385;28;20048;-89
2023/10/21 10:02:07;;;;;;;32.92;20.67;;;;;;;;;;5030611;28;20568;-90
2023/10/21 10:04:37;;;;;;;30.60;19.25;;;;;;;;;;5009992;28;20037;-89
2023/10/21 10:07:06;;;;;;;25.63;18.58;;;;;;;;;;5024740;28;20049;-88
2023/10/21 10:09:36;;;;;;;24.67;17.95;;;;;;;;;;4996731;28;20517;-89
2023/10/21 10:12:06;;;;;;;21.65;15.82;;;;;;;;;;5010892;28;20498;-87
2023/10/21 10:14:33;;;;;;;18.80;15.30;;;;;;;;;;5041312;28;20045;-88
2023/10/21 10:17:00;;;;;;;17.55;14.90;;;;;;;;;;5026583;28;20079;-88
2023/10/21 10:19:42;;;;;;;16.65;14.00;;;;;;;;;;5025847;28;20077;-88
2023/10/21 10:22:31;;;;;;;19.95;13.52;;;;;;;;;;5014982;28;20409;-89
2023/10/21 10:25:10;;;;;;;16.80;12.93;;;;;;;;;;5016710;28;20046;-87
2023/10/21 10:27:42;;;;;;;15.20;11.85;;;;;;;;;;5025337;28;20101;-89
2023/10/21 10:30:09;;;;;;;15.10;11.48;;;;;;;;;;5026233;28;20164;-89
2023/10/21 10:32:43;;;;;;;17.10;11.80;;;;;;;;;;5011270;28;20041;-89
2023/10/21 10:35:09;;;;;;;17.02;10.63;;;;;;;;;;5022682;28;20045;-89
2023/10/21 10:37:37;;;;;;;18.45;10.07;;;;;;;;;;4993381;28;20076;-84
2023/10/21 10:40:19;;;;;;;17.30;8.77;;;;;;;;;;5007957;28;20076;-84
2023/10/21 10:42:45;;;;;;;11.85;7.85;;;;;;;;;;5019280;28;20065;-84
2023/10/21 10:45:11;;;;;;;10.20;7.57;;;;;;;;;;4991697;28;20103;-83
2023/10/21 10:47:38;;;;;;;9.65;7.78;;;;;;;;;;5004220;28;22288;-86
2023/10/21 10:50:12;;;;;;;9.25;7.25;;;;;;;;;;5009940;28;20049;-84
2023/10/21 10:52:38;;;;;;;13.55;7.10;;;;;;;;;;5004765;28;20509;-83
2023/10/21 10:55:08;;;;;;;10.20;7.32;;;;;;;;;;4993850;28;20504;-85
2023/10/21 10:57:34;;;;;;;14.35;6.93;;;;;;;;;;5008921;28;20100;-84
2023/10/21 11:00:01;;;;;;;10.88;5.60;;;;;;;;;;5026662;28;20034;-84
2023/10/21 11:02:28;;;;;;;8.13;5.60;;;;;;;;;;5028736;28;20041;-84
2023/10/21 11:04:59;;;;;;;10.27;5.15;;;;;;;;;;5008748;28;20068;-83
2023/10/21 11:07:30;;;;;;;5.47;4.28;;;;;;;;;;5024455;28;20068;-83
2023/10/21 11:10:02;;;;;;;9.18;4.13;;;;;;;;;;5033271;28;20044;-85
2023/10/21 11:12:29;;;;;;;6.82;3.55;;;;;;;;;;5032426;28;20049;-86
2023/10/21 11:14:57;;;;;;;4.32;2.63;;;;;;;;;;5015439;28;20056;-84
2023/10/21 11:17:23;;;;;;;6.18;4.10;;;;;;;;;;5034163;28;20140;-84
2023/10/21 11:19:49;;;;;;;12.27;5.00;;;;;;;;;;5012857;28;20049;-83
2023/10/21 11:22:25;;;;;;;8.48;4.65;;;;;;;;;;4988274;28;20179;-85
2023/10/21 11:24:51;;;;;;;5.05;2.05;;;;;;;;;;5029081;28;20377;-84
2023/10/21 11:27:17;;;;;;;2.55;2.00;;;;;;;;;;5013395;28;20029;-85
2023/10/21 11:29:44;;;;;;;2.28;1.60;;;;;;;;;;4997827;28;20033;-85
2023/10/21 11:32:14;;;;;;;2.67;1.52;;;;;;;;;;5015628;28;20038;-83
2023/10/21 11:34:47;;;;;;;1.65;1.55;;;;;;;;;;5027008;28;20087;-85
2023/10/21 11:37:13;;;;;;;1.77;1.67;;;;;;;;;;5008604;28;20060;-85
2023/10/21 11:39:42;;;;;;;1.70;1.58;;;;;;;;;;5028460;28;20045;-84
2023/10/21 11:42:17;;;;;;;2.95;1.90;;;;;;;;;;5011768;28;20033;-84
2023/10/21 11:44:43;;;;;;;3.40;1.90;;;;;;;;;;4996095;28;20041;-86
2023/10/21 11:47:10;;;;;;;1.15;1.10;;;;;;;;;;5029052;28;20041;-90
2023/10/21 11:49:42;;;;;;;1.55;1.00;;;;;;;;;;5006386;28;20532;-89
2023/10/21 11:52:10;;;;;;;1.73;1.08;;;;;;;;;;5008899;28;20037;-89
2023/10/21 12:26:21;;;;;;;2.42;1.08;;;;;;;;;;5024881;28;20042;-90
2023/10/21 12:34:51;;;;;;;14.77;1.52;;;;;;;;;;4938015;28;20097;-90
2023/10/21 12:42:48;;;;;;;0.75;0.60;;;;;;;;;;5014587;28;20045;-89
2023/10/21 12:45:20;;;;;;;1.77;0.60;;;;;;;;;;5009823;28;20075;-91
2023/10/21 12:47:50;;;;;;;1.95;1.58;;;;;;;;;;5030008;28;20099;-91
2023/10/21 12:50:16;;;;;;;1.38;0.70;;;;;;;;;;5008326;28;20053;-92
2023/10/21 12:52:47;;;;;;;1.23;0.60;;;;;;;;;;5013622;28;20042;-92
2023/10/21 12:55:14;;;;;;;2.50;0.90;;;;;;;;;;5013217;28;20045;-89
2023/10/21 12:57:43;;;;;;;1.33;0.80;;;;;;;;;;4992775;28;20056;-90
2023/10/21 13:00:09;;;;;;;1.70;0.70;;;;;;;;;;5008312;28;20042;-91
2023/10/21 13:02:38;;;;;;;3.25;0.85;;;;;;;;;;5008408;28;20041;-86
2023/10/21 13:05:04;;;;;;;2.67;1.00;;;;;;;;;;5023782;28;20467;-92
2023/10/21 13:07:33;;;;;;;3.03;1.83;;;;;;;;;;5013598;28;20044;-87
2023/10/21 13:10:00;;;;;;;1.88;1.17;;;;;;;;;;5020021;28;20500;-87
2023/10/21 13:12:26;;;;;;;2.50;0.73;;;;;;;;;;5031300;28;20371;-87
2023/10/21 13:14:52;;;;;;;0.73;0.60;;;;;;;;;;5035587;28;20025;-87
2023/10/21 13:17:18;;;;;;;2.65;0.70;;;;;;;;;;5027757;28;20045;-87
2023/10/21 13:19:46;;;;;;;4.30;1.00;;;;;;;;;;5027228;28;20037;-87
2023/10/21 13:22:12;;;;;;;0.93;0.50;;;;;;;;;;5025686;28;20052;-87
2023/10/21 13:24:38;;;;;;;1.70;0.70;;;;;;;;;;5026816;28;20041;-87
2023/10/21 13:27:07;;;;;;;1.73;0.68;;;;;;;;;;4997553;28;20049;-87
2023/10/21 13:29:33;;;;;;;2.13;0.80;;;;;;;;;;5026862;28;20770;-87
2023/10/21 13:32:00;;;;;;;2.40;0.93;;;;;;;;;;5011649;28;20126;-87
2023/10/21 13:34:27;;;;;;;2.13;0.90;;;;;;;;;;5010709;28;20103;-89
2023/10/21 13:36:53;;;;;;;2.25;0.80;;;;;;;;;;5021805;28;20042;-87
2023/10/21 13:39:19;;;;;;;1.77;0.82;;;;;;;;;;5010856;28;20041;-87
2023/10/21 13:41:46;;;;;;;1.27;0.73;;;;;;;;;;4995999;28;20068;-88
2023/10/21 13:44:12;;;;;;;1.08;0.60;;;;;;;;;;5027935;28;20033;-87
2023/10/21 13:46:38;;;;;;;2.33;1.10;;;;;;;;;;5028667;28;20097;-87
2023/10/21 13:49:09;;;;;;;0.65;0.52;;;;;;;;;;4996291;28;20057;-88
2023/10/21 13:51:36;;;;;;;1.00;0.70;;;;;;;;;;5027025;28;20079;-87
2023/10/21 13:54:03;;;;;;;3.50;0.82;;;;;;;;;;5025377;28;20505;-87
2023/10/21 13:56:29;;;;;;;2.65;0.60;;;;;;;;;;5012841;28;20065;-87
2023/10/21 13:58:55;;;;;;;3.65;0.60;;;;;;;;;;5011890;28;20034;-87
2023/10/21 14:01:22;;;;;;;6.68;3.58;;;;;;;;;;4999970;28;20046;-87
2023/10/21 14:03:49;;;;;;;2.67;0.95;;;;;;;;;;5015392;28;20038;-87
2023/10/21 14:06:15;;;;;;;2.08;0.70;;;;;;;;;;5017967;28;20120;-87
2023/10/21 14:08:41;;;;;;;2.92;0.93;;;;;;;;;;5029057;28;20077;-90
2023/10/21 14:11:08;;;;;;;1.40;0.63;;;;;;;;;;5029494;28;20092;-91
2023/10/21 14:13:34;;;;;;;2.95;0.95;;;;;;;;;;5022073;28;20068;-92
2023/10/21 14:16:09;;;;;;;2.80;0.82;;;;;;;;;;5015277;28;20052;-91
2023/10/21 14:18:35;;;;;;;1.85;0.70;;;;;;;;;;4994801;28;20038;-85
2023/10/21 14:21:01;;;;;;;3.25;0.70;;;;;;;;;;5024904;28;20069;-85
2023/10/21 14:23:28;;;;;;;3.90;0.82;;;;;;;;;;5008650;28;20116;-86
2023/10/21 14:25:55;;;;;;;3.85;0.98;;;;;;;;;;5024333;28;20044;-85
2023/10/21 14:28:23;;;;;;;3.85;0.85;;;;;;;;;;5008046;28;20057;-85
2023/10/21 14:30:52;;;;;;;3.05;1.33;;;;;;;;;;5028488;28;20436;-85
2023/10/21 14:33:36;;;;;;;2.55;1.45;;;;;;;;;;5029405;28;20060;-86
2023/10/21 14:36:05;;;;;;;1.70;0.77;;;;;;;;;;5023967;28;20060;-85
2023/10/21 14:38:32;;;;;;;5.30;0.95;;;;;;;;;;5029570;28;20056;-84
2023/10/21 14:40:58;;;;;;;6.22;0.93;;;;;;;;;;5004918;28;20041;-85
2023/10/21 14:43:24;;;;;;;3.30;2.08;;;;;;;;;;5023813;28;20219;-84
2023/10/21 14:45:50;;;;;;;4.30;1.42;;;;;;;;;;5026453;28;20067;-84
2023/10/21 14:48:19;;;;;;;4.68;1.48;;;;;;;;;;4995078;28;20037;-85
2023/10/21 14:50:47;;;;;;;4.00;1.05;;;;;;;;;;5024278;28;20114;-86
2023/10/21 14:53:14;;;;;;;4.82;3.15;;;;;;;;;;5019383;28;20046;-84
2023/10/21 14:55:41;;;;;;;2.42;1.30;;;;;;;;;;5026924;28;20100;-85
2023/10/21 14:58:08;;;;;;;5.68;3.08;;;;;;;;;;5009954;28;20413;-85
2023/10/21 15:00:36;;;;;;;2.50;1.60;;;;;;;;;;5013011;28;20072;-85
2023/10/21 15:03:02;;;;;;;3.72;1.70;;;;;;;;;;5009700;28;20044;-84
2023/10/21 15:05:29;;;;;;;4.53;2.30;;;;;;;;;;5028059;28;20433;-86